Nearby METAR Reports

 

KMHT - Manchester, New Hampshire, USA
Distance from station: W 16mi, 26km
Updated: Fri, 21-Sep-2018 4:53am EDT
Overcast
Overcast
 Wind from SE
Wind: SE 5 mph , 7 km/h
Temperature: 59°F , 15°C
Dew Point: 55°F , 13°C
Humidity: 88%
Barometer: 30.28 inHg , 1025.4 hPa
Clouds: Overcast
Visibility: 10 miles , 16 km
Cloud details: Mostly cloudy 2200 ft
Overcast 4800 ft
2018/09/21 08:53 KMHT 210853Z 13004KT 10SM BKN022 OVC048 15/13 A3028 RMK AO2 SLP265 T01500128 55003
KPSM - Portsmouth/Pease, New Hampshire, USA
Distance from station: ENE 17mi, 27km
Updated: Fri, 21-Sep-2018 3:56am EDT
Mostly cloudy
Mostly cloudy
 Wind from calm
Wind: Calm
Temperature: 57°F , 14°C
Dew Point: 55°F , 13°C
Humidity: 94%
Barometer: 30.28 inHg , 1025.4 hPa
Clouds: Mostly cloudy
Visibility: 10 miles , 16 km
Cloud details: Few Clouds 4500 ft
Partly cloudy 10000 ft
Mostly cloudy 14000 ft
Mostly cloudy 20000 ft
2018/09/21 07:56 KPSM 210756Z 00000KT 10SM FEW045 SCT100 BKN140 BKN200 14/13 A3028 RMK AO2A SLP256 T01390129
 
KASH - Nashua/Boire Fld, New Hampshire, USA
Distance from station: WSW 24mi, 38km
Updated: Fri, 21-Sep-2018 4:56am EDT
Overcast
Overcast
 Wind from calm
Wind: Calm
Temperature: 57°F , 14°C
Dew Point: 57°F , 14°C
Humidity: 100%
Barometer: 30.30 inHg , 1026.1 hPa
Clouds: Overcast
Visibility: 10 miles , 16 km
Cloud details: Overcast 4600 ft
2018/09/21 08:56 KASH 210856Z AUTO 00000KT 10SM OVC046 14/14 A3030 RMK AO2 SLP269 6//// T01440144 55001 PNO $
KDAW - Rochester, New Hampshire, USA
Distance from station: NNE 24mi, 39km
Updated: Fri, 21-Sep-2018 4:51am EDT
Overcast
Overcast
 Wind from calm
Wind: Calm
Temperature: 55°F , 13°C
Dew Point: 55°F , 13°C
Humidity: 100%
Barometer: 30.29 inHg , 1025.7 hPa
Clouds: Overcast
Visibility: 10 miles , 16 km
Cloud details: Few Clouds 2100 ft
Overcast 5000 ft
2018/09/21 08:51 KDAW 210851Z AUTO 00000KT 10SM FEW021 OVC050 13/13 A3029 RMK AO2 SLP255 T01280128 55005